Grand Isle, Louisiana
Current Conditions -  °F | °C
As of 1:15 PM on Thursday 30 Oct 2014 (Local Time) from KXPY Reporting Station
Clear Clear  
Wind Chill: 72°   Ceiling: Unl
Heat Index: 72°   Visibility: 10mi
Dew Point: 54°   Wind: 14mph
Humidity: 53%   Direction: 50°NE
Pressure: 30.09"   Gusts: NA
Location:  29.24°N, 89.99°W
Report Text: KXPY 301815Z AUTO 05012KT 10SM CLR 22/12 A3009 RMK A01
Loading
Personal Weather Stations






























Interactive Weather Map
Tropical Storm Tracking
New forecast layout! Learn more

10-Day Weather Forecast

Advertisements
Track Severe Weather on mobile